Time;durP1;ratioP1;P1;durP2;ratioP2;P2;SDS_P1;SDS_P2;PMS_P1;PMS_P2;Temp;Humidity;BMP_temperature;BMP_pressure;BME280_temperature;BME280_humidity;BME280_pressure;Samples;Min_cycle;Max_cycle;Signal;HPM_P1;HPM_P2
2022/06/23 00:00:58;;;;;;;0.00;0.00;;;19.90;99.90;;;;;;4935464;29;20221;-71
2022/06/23 00:03:31;;;;;;;0.00;0.00;;;19.60;99.90;;;;;;4935521;29;20194;-71
2022/06/23 00:06:01;;;;;;;0.00;0.00;;;19.50;99.90;;;;;;4915854;29;20281;-71
2022/06/23 00:08:29;;;;;;;0.00;0.00;;;19.50;99.90;;;;;;4917086;29;20274;-71
2022/06/23 00:10:59;;;;;;;0.00;0.00;;;19.30;99.90;;;;;;4921214;29;20671;-71
2022/06/23 00:13:34;;;;;;;0.00;0.00;;;19.20;99.90;;;;;;4933368;29;20214;-71
2022/06/23 00:16:04;;;;;;;0.00;0.00;;;19.20;99.90;;;;;;4932448;29;20197;-72
2022/06/23 00:18:35;;;;;;;0.00;0.00;;;19.20;99.90;;;;;;4934583;29;20632;-72
2022/06/23 00:21:05;;;;;;;0.00;0.00;;;19.10;99.90;;;;;;4933935;29;20222;-74
2022/06/23 00:23:37;;;;;;;0.00;0.00;;;19.00;99.90;;;;;;4934793;29;20250;-72
2022/06/23 00:26:10;;;;;;;0.00;0.00;;;19.00;99.90;;;;;;4915938;29;20258;-71
2022/06/23 00:28:44;;;;;;;0.00;0.00;;;19.00;99.90;;;;;;4915554;29;20706;-72
2022/06/23 00:31:26;;;;;;;0.00;0.00;;;18.90;99.90;;;;;;4915570;29;20204;-72
2022/06/23 00:33:55;;;;;;;0.00;0.00;;;18.70;99.90;;;;;;4921925;29;20212;-72
2022/06/23 00:36:36;;;;;;;0.00;0.00;;;18.50;99.90;;;;;;4934102;29;20209;-72
2022/06/23 00:39:06;;;;;;;0.00;0.00;;;18.40;99.90;;;;;;4916984;29;20229;-72
2022/06/23 00:41:38;;;;;;;0.00;0.00;;;18.40;99.90;;;;;;4933983;29;20218;-73
2022/06/23 00:44:14;;;;;;;0.00;0.00;;;18.40;99.90;;;;;;4934171;29;20231;-73
2022/06/23 00:46:47;;;;;;;0.00;0.00;;;18.50;99.90;;;;;;4917834;29;20661;-73
2022/06/23 00:49:23;;;;;;;0.00;0.00;;;18.70;99.90;;;;;;4934290;29;20218;-73
2022/06/23 00:51:55;;;;;;;0.00;0.00;;;18.80;99.90;;;;;;4923810;29;20210;-73
2022/06/23 00:54:28;;;;;;;0.00;0.00;;;18.80;99.90;;;;;;4934123;29;20253;-72
2022/06/23 00:57:02;;;;;;;0.00;0.00;;;18.70;99.90;;;;;;4934099;29;20622;-72
2022/06/23 00:59:37;;;;;;;0.00;0.00;;;18.70;99.90;;;;;;4933747;29;20288;-72
2022/06/23 01:02:09;;;;;;;0.00;0.00;;;18.70;99.90;;;;;;4933271;29;20725;-72
2022/06/23 01:04:45;;;;;;;0.00;0.00;;;18.70;99.90;;;;;;4933215;29;20690;-73
2022/06/23 01:07:30;;;;;;;0.00;0.00;;;18.60;99.90;;;;;;4936610;29;20210;-73
2022/06/23 01:10:02;;;;;;;0.00;0.00;;;18.30;99.90;;;;;;4937336;29;20630;-73
2022/06/23 01:12:42;;;;;;;0.00;0.00;;;18.30;99.90;;;;;;4937670;29;20205;-73
2022/06/23 01:15:32;;;;;;;0.00;0.00;;;18.30;99.90;;;;;;4937478;29;20261;-73
2022/06/23 01:18:07;;;;;;;0.00;0.00;;;18.30;99.90;;;;;;4932370;29;20565;-73
2022/06/23 01:20:45;;;;;;;0.00;0.00;;;18.20;99.90;;;;;;4937672;29;20233;-74
2022/06/23 01:23:31;;;;;;;0.00;0.00;;;18.30;99.90;;;;;;4925899;29;20217;-74
2022/06/23 01:26:24;;;;;;;0.00;0.00;;;18.20;99.90;;;;;;4928065;29;20203;-73
2022/06/23 01:29:01;;;;;;;0.00;0.00;;;18.20;99.90;;;;;;4908064;29;20241;-74
2022/06/23 01:31:38;;;;;;;0.00;0.00;;;18.10;99.90;;;;;;4934960;29;20665;-74
2022/06/23 01:34:15;;;;;;;0.00;0.00;;;18.20;99.90;;;;;;4937927;29;20594;-72
2022/06/23 01:36:48;;;;;;;0.00;0.00;;;18.20;99.90;;;;;;4937239;29;20198;-73
2022/06/23 01:39:22;;;;;;;0.00;0.00;;;18.30;99.90;;;;;;4934954;29;20228;-74
2022/06/23 01:41:56;;;;;;;0.00;0.00;;;18.40;99.90;;;;;;4933317;29;20631;-73
2022/06/23 01:44:41;;;;;;;0.00;0.00;;;18.40;99.90;;;;;;4925901;29;20206;-73
2022/06/23 01:47:23;;;;;;;0.00;0.00;;;18.10;99.90;;;;;;4940313;29;20194;-73
2022/06/23 01:49:55;;;;;;;0.00;0.00;;;17.80;99.90;;;;;;4928860;29;20237;-73
2022/06/23 01:52:23;;;;;;;0.00;0.00;;;17.50;99.90;;;;;;4932822;29;20214;-72
2022/06/23 01:54:56;;;;;;;0.00;0.00;;;17.40;99.90;;;;;;4929165;29;20570;-72
2022/06/23 01:57:31;;;;;;;0.00;0.00;;;17.40;99.90;;;;;;4931654;29;20700;-71
2022/06/23 02:00:11;;;;;;;0.00;0.00;;;17.30;99.90;;;;;;4937388;29;20225;-71
2022/06/23 02:02:47;;;;;;;0.00;0.00;;;17.30;99.90;;;;;;4940588;29;20245;-70
2022/06/23 02:05:27;;;;;;;0.00;0.00;;;17.30;99.90;;;;;;4936976;29;20616;-70
2022/06/23 02:08:00;;;;;;;0.00;0.00;;;17.30;99.90;;;;;;4935800;29;20561;-72
2022/06/23 02:10:34;;;;;;;0.00;0.00;;;17.40;99.90;;;;;;4936262;29;20765;-70
2022/06/23 02:13:14;;;;;;;0.00;0.00;;;17.40;99.90;;;;;;4935806;29;20194;-70
2022/06/23 02:15:55;;;;;;;0.00;0.00;;;17.40;99.90;;;;;;4931276;29;20753;-70
2022/06/23 02:18:28;;;;;;;0.00;0.00;;;17.30;99.90;;;;;;4934987;29;20210;-69
2022/06/23 02:21:19;;;;;;;0.00;0.00;;;17.40;99.90;;;;;;4935322;29;20713;-70
2022/06/23 02:23:53;;;;;;;0.00;0.00;;;17.50;99.90;;;;;;4935503;29;20583;-69
2022/06/23 02:26:27;;;;;;;0.00;0.00;;;17.30;99.90;;;;;;4935913;29;20202;-69
2022/06/23 02:29:01;;;;;;;0.00;0.00;;;17.30;99.90;;;;;;4935794;29;20253;-70
2022/06/23 02:31:39;;;;;;;0.00;0.00;;;17.20;99.90;;;;;;4935400;29;20195;-69
2022/06/23 02:34:15;;;;;;;0.00;0.00;;;17.00;99.90;;;;;;4934029;29;20198;-70
2022/06/23 02:37:06;;;;;;;0.00;0.00;;;16.90;99.90;;;;;;4934741;29;20202;-70
2022/06/23 02:39:39;;;;;;;0.00;0.00;;;16.80;99.90;;;;;;4932181;29;20219;-69
2022/06/23 02:42:21;;;;;;;0.00;0.00;;;16.70;99.90;;;;;;4925299;29;20226;-70
2022/06/23 02:45:27;;;;;;;0.00;0.00;;;16.70;99.90;;;;;;4935709;29;20626;-71
2022/06/23 02:48:15;;;;;;;0.00;0.00;;;16.70;99.90;;;;;;4845330;29;20269;-69
2022/06/23 02:51:02;;;;;;;0.10;0.10;;;16.60;99.90;;;;;;4928110;29;20214;-70
2022/06/23 02:54:06;;;;;;;0.00;0.00;;;16.50;99.90;;;;;;4929640;29;20670;-69
2022/06/23 02:56:48;;;;;;;0.00;0.00;;;16.70;99.90;;;;;;4919253;29;20646;-69
2022/06/23 02:59:26;;;;;;;0.00;0.00;;;16.80;99.90;;;;;;4936300;29;20293;-69
2022/06/23 03:01:58;;;;;;;0.00;0.00;;;16.70;99.90;;;;;;4935231;29;20277;-69
2022/06/23 03:04:33;;;;;;;0.10;0.10;;;16.70;99.90;;;;;;4934569;29;20203;-69
2022/06/23 03:07:07;;;;;;;0.00;0.00;;;16.70;99.90;;;;;;4934318;29;20575;-69
2022/06/23 03:09:40;;;;;;;0.00;0.00;;;16.60;99.90;;;;;;4935492;29;20218;-69
2022/06/23 03:12:12;;;;;;;0.00;0.00;;;16.60;99.90;;;;;;4916291;29;20191;-69
2022/06/23 03:14:48;;;;;;;0.00;0.00;;;16.60;99.90;;;;;;4933490;29;20213;-69
2022/06/23 03:17:21;;;;;;;0.10;0.10;;;16.60;99.90;;;;;;4935525;29;20206;-70
2022/06/23 03:20:10;;;;;;;0.00;0.00;;;16.40;99.90;;;;;;4935083;29;20572;-71
2022/06/23 03:22:44;;;;;;;0.00;0.00;;;16.30;99.90;;;;;;4935627;29;20222;-69
2022/06/23 03:25:18;;;;;;;0.00;0.00;;;16.20;99.90;;;;;;4934450;29;20690;-69
2022/06/23 03:27:52;;;;;;;0.00;0.00;;;16.10;99.90;;;;;;4934418;29;20206;-71
2022/06/23 03:30:24;;;;;;;0.00;0.00;;;16.10;99.90;;;;;;4935213;29;20636;-68
2022/06/23 03:32:57;;;;;;;0.00;0.00;;;16.10;99.90;;;;;;4934996;29;20651;-71
2022/06/23 03:35:30;;;;;;;0.00;0.00;;;16.10;99.90;;;;;;4933291;29;20194;-69
2022/06/23 03:38:03;;;;;;;0.00;0.00;;;16.00;99.90;;;;;;4933781;29;20210;-68
2022/06/23 03:43:37;;;;;;;0.00;0.00;;;16.10;99.90;;;;;;4933506;29;20666;-70
2022/06/23 03:46:14;;;;;;;0.00;0.00;;;16.00;99.90;;;;;;4928684;29;20242;-69
2022/06/23 03:48:46;;;;;;;0.00;0.00;;;16.00;99.90;;;;;;4929696;29;20677;-68
2022/06/23 03:51:20;;;;;;;0.00;0.00;;;15.90;99.90;;;;;;4930719;29;20270;-69
2022/06/23 03:53:52;;;;;;;0.00;0.00;;;15.90;99.90;;;;;;4934238;29;20669;-69
2022/06/23 03:56:23;;;;;;;0.00;0.00;;;15.90;99.90;;;;;;4933960;29;20210;-69
2022/06/23 03:59:00;;;;;;;0.00;0.00;;;15.90;99.90;;;;;;4933670;29;20222;-72
2022/06/23 04:01:40;;;;;;;0.00;0.00;;;15.90;99.90;;;;;;4931647;29;20614;-70
2022/06/23 04:04:16;;;;;;;0.10;0.10;;;16.00;99.90;;;;;;4951999;29;20732;-69
2022/06/23 04:06:47;;;;;;;0.10;0.10;;;16.10;99.90;;;;;;4929396;29;20207;-69
2022/06/23 04:09:18;;;;;;;0.00;0.00;;;16.00;99.90;;;;;;4915814;29;20777;-69
2022/06/23 04:11:59;;;;;;;0.00;0.00;;;16.10;99.90;;;;;;4915773;29;20199;-70
2022/06/23 04:14:44;;;;;;;0.00;0.00;;;16.20;99.90;;;;;;4927595;29;20678;-69
2022/06/23 04:17:20;;;;;;;0.00;0.00;;;16.20;99.90;;;;;;4919248;29;20250;-70
2022/06/23 04:19:50;;;;;;;0.00;0.00;;;16.20;99.90;;;;;;4929139;29;20224;-71
2022/06/23 04:22:25;;;;;;;0.00;0.00;;;16.20;99.90;;;;;;4932088;29;20643;-70
2022/06/23 04:24:59;;;;;;;0.00;0.00;;;16.20;99.90;;;;;;4932238;29;20237;-71
2022/06/23 04:27:30;;;;;;;0.00;0.00;;;16.20;99.90;;;;;;4928940;29;20198;-70
2022/06/23 04:30:00;;;;;;;0.00;0.00;;;16.30;99.90;;;;;;4932031;29;20545;-70
2022/06/23 04:32:30;;;;;;;0.00;0.00;;;16.30;99.90;;;;;;4927781;29;20621;-70
2022/06/23 04:35:10;;;;;;;0.00;0.00;;;16.30;99.90;;;;;;4922976;29;20209;-70
2022/06/23 04:37:48;;;;;;;0.00;0.00;;;16.40;99.90;;;;;;4915822;29;20218;-71
2022/06/23 04:40:22;;;;;;;0.00;0.00;;;16.30;99.90;;;;;;4929161;29;20582;-70
2022/06/23 04:42:57;;;;;;;0.00;0.00;;;16.40;99.90;;;;;;4934171;29;20722;-70
2022/06/23 04:45:38;;;;;;;0.00;0.00;;;16.50;99.90;;;;;;4934531;29;20704;-70
2022/06/23 04:48:15;;;;;;;0.00;0.00;;;16.60;99.90;;;;;;4930177;29;20210;-70
2022/06/23 04:50:47;;;;;;;0.00;0.00;;;16.60;99.90;;;;;;4933944;29;20228;-70
2022/06/23 04:53:24;;;;;;;0.08;0.08;;;16.70;99.90;;;;;;4934118;29;20237;-70
2022/06/23 04:56:06;;;;;;;0.00;0.00;;;16.80;99.90;;;;;;4933686;29;20205;-69
2022/06/23 04:58:44;;;;;;;0.00;0.00;;;16.80;99.90;;;;;;4932182;29;20322;-70
2022/06/23 05:01:16;;;;;;;0.00;0.00;;;16.90;99.90;;;;;;4915100;29;20239;-70
2022/06/23 05:03:49;;;;;;;0.00;0.00;;;17.10;99.90;;;;;;4915214;29;20227;-70
2022/06/23 05:06:28;;;;;;;0.00;0.00;;;17.20;99.90;;;;;;4926176;29;20206;-71
2022/06/23 05:09:01;;;;;;;0.00;0.00;;;17.30;99.90;;;;;;4933997;29;20255;-70
2022/06/23 05:11:34;;;;;;;0.00;0.00;;;17.30;99.90;;;;;;4934413;29;20199;-69
2022/06/23 05:14:05;;;;;;;0.00;0.00;;;17.40;99.90;;;;;;4934242;29;20614;-69
2022/06/23 05:16:38;;;;;;;0.00;0.00;;;17.30;99.90;;;;;;4933468;29;20202;-70
2022/06/23 05:19:10;;;;;;;0.00;0.00;;;17.30;99.90;;;;;;4934340;29;20258;-70
2022/06/23 05:21:41;;;;;;;0.00;0.00;;;17.40;99.90;;;;;;4935656;29;20206;-71
2022/06/23 05:24:17;;;;;;;0.00;0.00;;;17.40;99.90;;;;;;4933917;29;20752;-69
2022/06/23 05:26:50;;;;;;;0.03;0.03;;;17.50;99.90;;;;;;4933621;29;20302;-70
2022/06/23 05:29:22;;;;;;;0.00;0.00;;;17.70;99.90;;;;;;4933268;29;20226;-69
2022/06/23 05:31:54;;;;;;;0.00;0.00;;;17.80;99.90;;;;;;4933814;29;20254;-70
2022/06/23 05:34:25;;;;;;;0.00;0.00;;;17.90;99.90;;;;;;4933765;29;20249;-70
2022/06/23 05:36:59;;;;;;;0.00;0.00;;;18.10;99.90;;;;;;4933807;29;20206;-69
2022/06/23 05:39:36;;;;;;;0.00;0.00;;;18.20;99.90;;;;;;4933682;29;20218;-70
2022/06/23 05:42:16;;;;;;;0.00;0.00;;;18.30;99.90;;;;;;4933008;29;20202;-69
2022/06/23 05:44:50;;;;;;;0.00;0.00;;;18.50;99.90;;;;;;4933732;29;20206;-71
2022/06/23 05:47:19;;;;;;;0.00;0.00;;;18.70;99.90;;;;;;4933826;29;20749;-70
2022/06/23 05:49:53;;;;;;;0.10;0.10;;;18.80;99.90;;;;;;4933624;29;20246;-69
2022/06/23 05:52:25;;;;;;;0.00;0.00;;;18.90;99.90;;;;;;4932988;29;20230;-70
2022/06/23 05:55:00;;;;;;;0.00;0.00;;;18.90;99.90;;;;;;4936820;29;20206;-69
2022/06/23 05:57:34;;;;;;;0.00;0.00;;;19.00;99.90;;;;;;4918399;29;20253;-70
2022/06/23 06:00:18;;;;;;;0.00;0.00;;;19.30;99.90;;;;;;4923931;29;20562;-70
2022/06/23 06:02:52;;;;;;;0.00;0.00;;;19.40;99.90;;;;;;4936952;29;20484;-69
2022/06/23 06:05:32;;;;;;;0.00;0.00;;;19.50;99.90;;;;;;4936893;29;20541;-69
2022/06/23 06:08:02;;;;;;;0.00;0.00;;;19.40;99.90;;;;;;4936971;29;20202;-70
2022/06/23 06:10:33;;;;;;;0.00;0.00;;;19.50;99.90;;;;;;4936793;29;20214;-69
2022/06/23 06:13:03;;;;;;;0.00;0.00;;;19.60;99.90;;;;;;4937553;29;20203;-70
2022/06/23 06:15:34;;;;;;;0.00;0.00;;;19.60;99.90;;;;;;4937634;29;20202;-69
2022/06/23 06:18:07;;;;;;;0.00;0.00;;;19.60;99.90;;;;;;4936836;29;20198;-70
2022/06/23 06:20:36;;;;;;;0.00;0.00;;;19.70;99.90;;;;;;4936406;29;20198;-70
2022/06/23 06:23:10;;;;;;;0.00;0.00;;;19.70;99.90;;;;;;4936551;29;20214;-70
2022/06/23 06:25:41;;;;;;;0.00;0.00;;;19.90;99.90;;;;;;4936841;29;20198;-70
2022/06/23 06:28:15;;;;;;;0.00;0.00;;;20.10;99.90;;;;;;4936139;29;20217;-70
2022/06/23 06:30:48;;;;;;;0.00;0.00;;;20.30;99.90;;;;;;4929638;29;20225;-69
2022/06/23 06:33:29;;;;;;;0.00;0.00;;;20.50;99.90;;;;;;4936763;29;20538;-70
2022/06/23 06:35:57;;;;;;;0.00;0.00;;;20.70;99.90;;;;;;4937056;29;20619;-69
2022/06/23 06:38:28;;;;;;;0.00;0.00;;;20.90;99.90;;;;;;4936714;29;20202;-69
2022/06/23 06:40:59;;;;;;;0.00;0.00;;;21.00;99.90;;;;;;4936907;29;20198;-69
2022/06/23 06:43:33;;;;;;;0.00;0.00;;;21.30;99.90;;;;;;4934233;29;20237;-69
2022/06/23 06:46:01;;;;;;;0.00;0.00;;;21.50;99.90;;;;;;4924721;29;20206;-69
2022/06/23 06:48:32;;;;;;;0.00;0.00;;;21.50;99.90;;;;;;4936243;29;20233;-69
2022/06/23 06:51:05;;;;;;;0.00;0.00;;;21.50;99.90;;;;;;4935882;29;20728;-70
2022/06/23 06:53:37;;;;;;;0.00;0.00;;;21.60;99.90;;;;;;4934085;29;20207;-70
2022/06/23 06:56:12;;;;;;;0.00;0.00;;;21.60;99.90;;;;;;4937967;29;20203;-70
2022/06/23 06:58:44;;;;;;;0.00;0.00;;;21.80;99.90;;;;;;4919268;29;20222;-70
2022/06/23 07:01:16;;;;;;;0.00;0.00;;;22.00;99.90;;;;;;4927343;29;20214;-70
2022/06/23 07:03:47;;;;;;;0.00;0.00;;;21.90;99.90;;;;;;4937486;29;20222;-70
2022/06/23 07:06:27;;;;;;;0.00;0.00;;;22.00;99.90;;;;;;4937901;29;20210;-70
2022/06/23 07:08:59;;;;;;;0.00;0.00;;;22.10;99.90;;;;;;4936402;29;20702;-71
2022/06/23 07:11:44;;;;;;;0.00;0.00;;;22.30;99.90;;;;;;4936336;29;20202;-70
2022/06/23 07:14:18;;;;;;;0.00;0.00;;;22.50;99.90;;;;;;4935812;29;20241;-71
2022/06/23 07:16:50;;;;;;;0.00;0.00;;;22.70;99.90;;;;;;4936249;29;20194;-71
2022/06/23 07:19:23;;;;;;;0.00;0.00;;;22.80;99.90;;;;;;4935247;29;20218;-71
2022/06/23 07:21:56;;;;;;;0.00;0.00;;;23.00;99.90;;;;;;4935449;29;20222;-69
2022/06/23 07:24:28;;;;;;;0.00;0.00;;;23.20;99.90;;;;;;4934876;29;20234;-68
2022/06/23 07:27:03;;;;;;;0.00;0.00;;;23.30;99.90;;;;;;4935352;29;20202;-71
2022/06/23 07:29:39;;;;;;;0.00;0.00;;;23.50;99.90;;;;;;4935645;29;20225;-70
2022/06/23 07:32:15;;;;;;;0.00;0.00;;;23.60;99.90;;;;;;4935199;29;20198;-71
2022/06/23 07:34:48;;;;;;;0.00;0.00;;;23.70;99.90;;;;;;4935307;29;20198;-68
2022/06/23 07:37:23;;;;;;;0.00;0.00;;;23.90;99.90;;;;;;4935027;29;20217;-71
2022/06/23 07:39:58;;;;;;;0.00;0.00;;;24.10;99.90;;;;;;4934767;29;20218;-70
2022/06/23 07:42:38;;;;;;;0.00;0.00;;;24.30;99.90;;;;;;4935717;29;20199;-70
2022/06/23 07:45:10;;;;;;;0.00;0.00;;;24.40;99.90;;;;;;4935011;29;20309;-69
2022/06/23 07:47:38;;;;;;;0.00;0.00;;;24.50;99.40;;;;;;4935038;29;20202;-69
2022/06/23 07:50:07;;;;;;;0.00;0.00;;;24.70;99.40;;;;;;4935493;29;20241;-69
2022/06/23 07:52:35;;;;;;;0.00;0.00;;;24.90;98.90;;;;;;4935811;29;20202;-69
2022/06/23 07:55:04;;;;;;;0.00;0.00;;;25.10;98.60;;;;;;4935690;29;20693;-69
2022/06/23 07:57:53;;;;;;;0.00;0.00;;;25.30;98.30;;;;;;4934970;29;20202;-70
2022/06/23 08:00:21;;;;;;;0.00;0.00;;;25.40;97.50;;;;;;4934863;29;20222;-69
2022/06/23 08:02:53;;;;;;;0.00;0.00;;;25.60;97.50;;;;;;4935659;29;20674;-72
2022/06/23 08:05:27;;;;;;;0.00;0.00;;;25.80;97.10;;;;;;4936744;29;20226;-72
2022/06/23 08:07:56;;;;;;;0.00;0.00;;;26.00;96.70;;;;;;4937272;29;20195;-72
2022/06/23 08:10:27;;;;;;;0.00;0.00;;;26.20;96.30;;;;;;4936739;29;20695;-72
2022/06/23 08:13:03;;;;;;;0.00;0.00;;;26.30;96.20;;;;;;4934767;29;20202;-71
2022/06/23 08:18:27;;;;;;;0.00;0.00;;;26.70;95.20;;;;;;4936151;29;20737;-75
2022/06/23 08:21:04;;;;;;;0.00;0.00;;;27.00;95.00;;;;;;4936461;29;20202;-72
2022/06/23 08:23:38;;;;;;;0.00;0.00;;;27.10;94.20;;;;;;4936512;29;20225;-72
2022/06/23 08:26:08;;;;;;;0.00;0.00;;;27.30;94.00;;;;;;4935599;29;20202;-72
2022/06/23 08:28:38;;;;;;;0.00;0.00;;;27.40;94.00;;;;;;4934847;29;20241;-72
2022/06/23 08:31:07;;;;;;;0.00;0.00;;;27.60;93.70;;;;;;4934407;29;20602;-73
2022/06/23 08:33:35;;;;;;;0.00;0.00;;;27.80;93.20;;;;;;4935029;29;20198;-72
2022/06/23 08:36:09;;;;;;;0.00;0.00;;;28.00;92.80;;;;;;4934336;29;20213;-72
2022/06/23 08:38:42;;;;;;;0.00;0.00;;;28.20;92.50;;;;;;4933828;29;20626;-71
2022/06/23 08:41:20;;;;;;;0.00;0.00;;;28.10;92.00;;;;;;4934891;29;20214;-72
2022/06/23 08:44:14;;;;;;;0.00;0.00;;;28.20;92.30;;;;;;4935408;29;20670;-72
2022/06/23 08:46:50;;;;;;;0.00;0.00;;;28.30;91.90;;;;;;4935205;29;20206;-72
2022/06/23 08:49:24;;;;;;;0.00;0.00;;;28.50;91.60;;;;;;4934396;29;20221;-72
2022/06/23 08:51:57;;;;;;;0.00;0.00;;;28.70;91.30;;;;;;4934485;29;20234;-71
2022/06/23 08:54:34;;;;;;;0.00;0.00;;;28.80;91.00;;;;;;4934877;29;20194;-72
2022/06/23 08:57:09;;;;;;;0.00;0.00;;;28.80;90.60;;;;;;4934309;29;20698;-72
2022/06/23 08:59:48;;;;;;;0.00;0.00;;;28.70;90.50;;;;;;4933720;29;20228;-72
2022/06/23 09:02:21;;;;;;;0.00;0.00;;;28.70;91.00;;;;;;4934600;29;20264;-72
2022/06/23 09:05:18;;;;;;;0.00;0.00;;;29.00;90.80;;;;;;4934289;29;20217;-72
2022/06/23 09:07:54;;;;;;;0.00;0.00;;;29.00;90.50;;;;;;4934180;29;20194;-72
2022/06/23 09:10:37;;;;;;;0.00;0.00;;;29.20;90.10;;;;;;4934346;29;20277;-72
2022/06/23 09:13:18;;;;;;;0.00;0.00;;;29.30;90.50;;;;;;4927942;29;20251;-72
2022/06/23 09:16:10;;;;;;;0.00;0.00;;;29.40;90.00;;;;;;4915380;29;20628;-72
2022/06/23 09:18:57;;;;;;;0.00;0.00;;;29.60;89.20;;;;;;4927843;29;20222;-72
2022/06/23 09:21:31;;;;;;;0.00;0.00;;;29.70;89.40;;;;;;4934618;29;20609;-72
2022/06/23 09:24:30;;;;;;;0.00;0.00;;;29.80;88.40;;;;;;4934151;29;20190;-72
2022/06/23 09:27:00;;;;;;;0.00;0.00;;;29.90;88.00;;;;;;4936678;29;20198;-72
2022/06/23 09:29:45;;;;;;;0.00;0.00;;;30.00;87.40;;;;;;4937636;29;20227;-73
2022/06/23 09:32:24;;;;;;;0.00;0.00;;;29.90;86.50;;;;;;4937785;29;20204;-72
2022/06/23 09:35:12;;;;;;;0.00;0.00;;;29.90;87.40;;;;;;4920578;29;20206;-72
2022/06/23 09:38:02;;;;;;;0.00;0.00;;;30.00;86.60;;;;;;4937957;29;20674;-72
2022/06/23 09:40:43;;;;;;;0.00;0.00;;;30.10;86.20;;;;;;4937478;29;20281;-73
2022/06/23 09:43:35;;;;;;;0.00;0.00;;;30.20;85.50;;;;;;4937711;29;20205;-73
2022/06/23 09:46:23;;;;;;;0.00;0.00;;;30.50;85.30;;;;;;4937063;29;20725;-73
2022/06/23 09:49:18;;;;;;;0.00;0.00;;;30.80;83.90;;;;;;4937551;29;20241;-73
2022/06/23 09:52:11;;;;;;;0.00;0.00;;;30.90;83.70;;;;;;4884922;29;20294;-72
2022/06/23 09:55:00;;;;;;;0.00;0.00;;;30.80;83.10;;;;;;4918544;29;20239;-73
2022/06/23 09:58:01;;;;;;;0.00;0.00;;;30.30;83.10;;;;;;4918119;29;20203;-72
2022/06/23 10:00:43;;;;;;;0.00;0.00;;;30.50;83.80;;;;;;4918268;29;20570;-73
2022/06/23 10:03:29;;;;;;;0.00;0.00;;;30.80;82.40;;;;;;4917750;29;20263;-72
2022/06/23 10:06:35;;;;;;;0.00;0.00;;;31.10;82.60;;;;;;4917870;29;20219;-72
2022/06/23 10:09:12;;;;;;;0.00;0.00;;;31.30;81.20;;;;;;4934369;29;20217;-72
2022/06/23 10:11:57;;;;;;;0.00;0.00;;;31.50;81.10;;;;;;4937193;29;20214;-72
2022/06/23 10:14:46;;;;;;;0.00;0.00;;;31.70;80.80;;;;;;4936499;29;20537;-72
2022/06/23 10:17:27;;;;;;;0.00;0.00;;;31.90;79.50;;;;;;4936305;29;20202;-72
2022/06/23 10:20:11;;;;;;;0.00;0.00;;;31.60;80.10;;;;;;4928062;29;20713;-72
2022/06/23 10:22:55;;;;;;;0.00;0.00;;;31.70;80.10;;;;;;4930153;29;20213;-72
2022/06/23 10:25:48;;;;;;;0.00;0.00;;;31.90;79.70;;;;;;4919520;29;20235;-72
2022/06/23 10:28:47;;;;;;;0.00;0.00;;;32.00;79.10;;;;;;4923411;29;20218;-72
2022/06/23 10:31:28;;;;;;;0.00;0.00;;;32.10;78.80;;;;;;4924343;29;20214;-72
2022/06/23 10:34:14;;;;;;;0.00;0.00;;;32.10;78.00;;;;;;4936625;29;20362;-72
2022/06/23 10:37:09;;;;;;;0.00;0.00;;;31.50;77.90;;;;;;4936208;29;20202;-72
2022/06/23 10:40:04;;;;;;;0.00;0.00;;;31.20;78.60;;;;;;4936289;29;20225;-72
2022/06/23 10:43:05;;;;;;;0.00;0.00;;;31.60;79.50;;;;;;4936665;29;20249;-73
2022/06/23 10:45:43;;;;;;;0.00;0.00;;;31.70;78.60;;;;;;4936432;29;20218;-71
2022/06/23 10:48:36;;;;;;;0.00;0.00;;;32.00;77.70;;;;;;4936197;29;20293;-72
2022/06/23 10:51:16;;;;;;;0.00;0.00;;;32.00;77.00;;;;;;4931782;29;20221;-72
2022/06/23 10:54:11;;;;;;;0.00;0.00;;;32.10;77.30;;;;;;4936290;29;20225;-73
2022/06/23 10:57:00;;;;;;;0.00;0.00;;;32.40;76.80;;;;;;4936304;29;20203;-73
2022/06/23 10:59:41;;;;;;;0.00;0.00;;;32.60;75.60;;;;;;4936016;29;20217;-72
2022/06/23 11:02:29;;;;;;;0.00;0.00;;;32.70;76.00;;;;;;4936080;29;20201;-73
2022/06/23 11:05:20;;;;;;;0.00;0.00;;;32.90;75.80;;;;;;4935998;29;20202;-73
2022/06/23 11:08:06;;;;;;;0.00;0.00;;;32.70;74.80;;;;;;4936263;29;20206;-71
2022/06/23 11:11:09;;;;;;;0.00;0.00;;;32.90;75.30;;;;;;4937445;29;20642;-73
2022/06/23 11:13:46;;;;;;;0.00;0.00;;;33.00;75.00;;;;;;4937572;29;20202;-73
2022/06/23 11:16:22;;;;;;;0.00;0.00;;;32.80;74.50;;;;;;4935727;29;20621;-72
2022/06/23 11:19:01;;;;;;;0.00;0.00;;;32.70;75.00;;;;;;4935530;29;20221;-71
2022/06/23 11:21:49;;;;;;;0.00;0.00;;;32.90;74.60;;;;;;4936232;29;20261;-75
2022/06/23 11:24:29;;;;;;;0.00;0.00;;;33.20;73.80;;;;;;4936041;29;20624;-73
2022/06/23 11:27:06;;;;;;;0.00;0.00;;;33.60;73.30;;;;;;4935821;29;20626;-72
2022/06/23 11:29:54;;;;;;;0.00;0.00;;;33.60;73.00;;;;;;4927270;29;20234;-73
2022/06/23 11:32:33;;;;;;;0.00;0.00;;;33.60;73.10;;;;;;4920169;29;20214;-73
2022/06/23 11:35:26;;;;;;;0.00;0.00;;;33.60;72.70;;;;;;4920364;29;20198;-71
2022/06/23 11:38:10;;;;;;;0.00;0.00;;;33.50;72.90;;;;;;4933942;29;20209;-73
2022/06/23 11:41:00;;;;;;;0.00;0.00;;;33.50;72.30;;;;;;4935922;29;20213;-73
2022/06/23 11:43:41;;;;;;;0.00;0.00;;;33.50;72.30;;;;;;4935796;29;20666;-73
2022/06/23 11:46:27;;;;;;;0.00;0.00;;;33.70;71.90;;;;;;4936119;29;20217;-73
2022/06/23 11:49:30;;;;;;;0.00;0.00;;;33.60;71.30;;;;;;4934132;29;20229;-72
2022/06/23 11:52:13;;;;;;;0.00;0.00;;;33.40;71.10;;;;;;4916365;29;20206;-73
2022/06/23 11:55:21;;;;;;;0.00;0.00;;;33.40;71.90;;;;;;4916518;29;20202;-73
2022/06/23 11:58:07;;;;;;;0.00;0.00;;;33.60;71.30;;;;;;4915274;29;20778;-74
2022/06/23 12:00:47;;;;;;;0.00;0.00;;;33.80;71.30;;;;;;4916462;29;20288;-74
2022/06/23 12:03:30;;;;;;;0.00;0.00;;;34.20;71.10;;;;;;4916105;29;20198;-75
2022/06/23 12:06:09;;;;;;;0.00;0.00;;;34.40;70.60;;;;;;4915987;29;20221;-74
2022/06/23 12:08:56;;;;;;;0.00;0.00;;;34.40;71.30;;;;;;4916360;29;20232;-74
2022/06/23 12:11:24;;;;;;;0.00;0.00;;;34.40;70.00;;;;;;4919634;29;20254;-73
2022/06/23 12:13:53;;;;;;;0.00;0.00;;;34.40;69.60;;;;;;4918602;29;20343;-73
2022/06/23 12:16:21;;;;;;;0.00;0.00;;;34.30;69.20;;;;;;4919266;29;20190;-73
2022/06/23 12:19:00;;;;;;;0.00;0.00;;;34.20;68.70;;;;;;4932013;29;20226;-73
2022/06/23 12:21:35;;;;;;;0.00;0.00;;;34.20;69.00;;;;;;4936314;29;20538;-70
2022/06/23 12:24:10;;;;;;;0.00;0.00;;;34.00;68.80;;;;;;4937258;29;20193;-73
2022/06/23 12:26:44;;;;;;;0.00;0.00;;;34.00;68.20;;;;;;4932031;29;20288;-72
2022/06/23 12:29:20;;;;;;;0.00;0.00;;;33.80;68.60;;;;;;4923863;29;20264;-71
2022/06/23 12:31:57;;;;;;;0.00;0.00;;;33.80;68.50;;;;;;4916409;29;20212;-73
2022/06/23 12:34:34;;;;;;;0.00;0.00;;;34.00;68.30;;;;;;4916037;29;20682;-73
2022/06/23 12:37:16;;;;;;;0.00;0.00;;;34.00;68.60;;;;;;4915713;29;20190;-73
2022/06/23 12:39:52;;;;;;;0.00;0.00;;;34.10;67.70;;;;;;4915330;29;20230;-73
2022/06/23 12:42:24;;;;;;;0.00;0.00;;;33.20;68.90;;;;;;4921183;29;20201;-73
2022/06/23 12:45:14;;;;;;;0.00;0.00;;;33.10;69.60;;;;;;4934491;29;20225;-73
2022/06/23 12:47:59;;;;;;;0.00;0.00;;;33.20;69.40;;;;;;4934106;29;20217;-73
2022/06/23 12:50:49;;;;;;;0.00;0.00;;;33.40;69.60;;;;;;4934563;29;20522;-73
2022/06/23 12:53:31;;;;;;;0.00;0.00;;;33.60;69.90;;;;;;4934342;29;20201;-74
2022/06/23 12:56:13;;;;;;;0.00;0.00;;;33.60;69.50;;;;;;4933950;29;20205;-73
2022/06/23 12:58:47;;;;;;;0.00;0.00;;;33.50;69.20;;;;;;4934431;29;20712;-73
2022/06/23 13:01:18;;;;;;;0.00;0.00;;;33.40;69.20;;;;;;4937906;29;20193;-73
2022/06/23 13:03:55;;;;;;;0.00;0.00;;;33.50;69.10;;;;;;4938485;29;20202;-73
2022/06/23 13:06:36;;;;;;;0.00;0.00;;;33.40;69.60;;;;;;4938346;29;20221;-73
2022/06/23 13:09:18;;;;;;;0.00;0.00;;;33.20;68.40;;;;;;4937863;29;20217;-73
2022/06/23 13:11:54;;;;;;;0.00;0.00;;;33.30;68.70;;;;;;4921245;29;20654;-73
2022/06/23 13:14:28;;;;;;;0.00;0.00;;;33.30;68.60;;;;;;4938371;29;20273;-75
2022/06/23 13:17:01;;;;;;;0.00;0.00;;;33.20;67.40;;;;;;4937869;29;20205;-73
2022/06/23 13:19:35;;;;;;;0.00;0.00;;;33.20;67.70;;;;;;4935292;29;20784;-73
2022/06/23 13:22:25;;;;;;;0.00;0.00;;;33.40;67.70;;;;;;4937725;29;20197;-73
2022/06/23 13:24:56;;;;;;;0.00;0.00;;;33.50;67.20;;;;;;4937452;29;20709;-73
2022/06/23 13:27:28;;;;;;;0.00;0.00;;;33.60;66.80;;;;;;4937320;29;20671;-72
2022/06/23 13:30:01;;;;;;;0.00;0.00;;;33.60;66.50;;;;;;4937279;29;20214;-71
2022/06/23 13:32:38;;;;;;;0.00;0.00;;;33.20;67.70;;;;;;4937762;29;20281;-73
2022/06/23 13:35:15;;;;;;;0.00;0.00;;;33.40;67.50;;;;;;4938018;29;20197;-74
2022/06/23 13:37:50;;;;;;;0.00;0.00;;;33.60;67.90;;;;;;4936134;29;20376;-73
2022/06/23 13:40:29;;;;;;;0.00;0.00;;;33.70;68.30;;;;;;4918229;29;20281;-73
2022/06/23 13:43:06;;;;;;;0.00;0.00;;;33.30;67.70;;;;;;4923996;29;20636;-73
2022/06/23 13:45:39;;;;;;;0.00;0.00;;;32.80;67.70;;;;;;4937353;29;20213;-73
2022/06/23 13:48:14;;;;;;;0.00;0.00;;;33.00;68.60;;;;;;4928409;29;20224;-74